createdAt,value
2018-01-03T00:00:18.894Z,989.03
2018-01-03T00:01:18.889Z,988.94
2018-01-03T00:02:18.896Z,988.93
2018-01-03T00:03:18.875Z,988.81
2018-01-03T00:04:18.873Z,988.81
2018-01-03T00:05:18.863Z,988.77
2018-01-03T00:06:18.858Z,988.74
2018-01-03T00:07:18.856Z,988.67
2018-01-03T00:08:18.851Z,988.62
2018-01-03T00:09:18.839Z,988.62
2018-01-03T00:10:18.836Z,988.56
2018-01-03T00:11:18.830Z,988.53
2018-01-03T00:12:18.826Z,988.43
2018-01-03T00:13:18.855Z,988.38
2018-01-03T00:14:18.819Z,988.37
2018-01-03T00:15:18.806Z,988.35
2018-01-03T00:16:18.801Z,988.30
2018-01-03T00:17:18.829Z,988.26
2018-01-03T00:18:18.790Z,988.25
2018-01-03T00:19:18.783Z,988.23
2018-01-03T00:20:18.776Z,988.17
2018-01-03T00:21:18.773Z,988.19
2018-01-03T00:22:18.767Z,988.16
2018-01-03T00:23:18.761Z,988.15
2018-01-03T00:24:18.755Z,988.07
2018-01-03T00:25:18.748Z,988.09
2018-01-03T00:26:18.760Z,988.04
2018-01-03T00:27:18.738Z,988.02
2018-01-03T00:28:18.731Z,988.04
2018-01-03T00:29:18.724Z,987.88
2018-01-03T00:30:18.720Z,987.91
2018-01-03T00:31:18.741Z,987.88
2018-01-03T00:32:18.707Z,987.86
2018-01-03T00:33:18.700Z,987.81
2018-01-03T00:34:18.695Z,987.78
2018-01-03T00:35:18.702Z,987.76
2018-01-03T00:36:18.689Z,987.70
2018-01-03T00:37:18.678Z,987.68
2018-01-03T00:38:18.687Z,987.65
2018-01-03T00:39:18.670Z,987.68
2018-01-03T00:40:18.662Z,987.68
2018-01-03T00:41:18.657Z,987.63
2018-01-03T00:42:18.670Z,987.63
2018-01-03T00:43:18.645Z,987.62
2018-01-03T00:44:18.643Z,987.59
2018-01-03T00:45:18.634Z,987.60
2018-01-03T00:46:18.662Z,987.52
2018-01-03T00:47:18.623Z,987.49
2018-01-03T00:48:18.617Z,987.46
2018-01-03T00:49:18.645Z,987.37
2018-01-03T00:50:18.606Z,987.34
2018-01-03T00:51:18.601Z,987.35
2018-01-03T00:52:18.595Z,987.33
2018-01-03T00:53:18.589Z,987.24
2018-01-03T00:54:18.630Z,987.23
2018-01-03T00:55:18.580Z,987.22
2018-01-03T00:56:18.572Z,987.21
2018-01-03T00:57:18.565Z,987.20
2018-01-03T00:58:18.565Z,987.13
2018-01-03T00:59:18.579Z,987.14
2018-01-03T01:00:18.550Z,987.15
2018-01-03T01:01:18.542Z,987.08
2018-01-03T01:02:18.560Z,987.10
2018-01-03T01:03:18.532Z,987.09
2018-01-03T01:04:18.527Z,987.10
2018-01-03T01:05:18.521Z,987.03
2018-01-03T01:06:18.516Z,987.15
2018-01-03T01:07:18.509Z,987.06
2018-01-03T01:08:18.505Z,987.05
2018-01-03T01:09:18.501Z,987.00
2018-01-03T01:10:18.495Z,987.00
2018-01-03T01:11:18.488Z,986.98
2018-01-03T01:12:18.482Z,986.92
2018-01-03T01:13:18.476Z,986.95
2018-01-03T01:14:18.471Z,986.87
2018-01-03T01:15:18.467Z,986.78
2018-01-03T01:16:18.458Z,986.79
2018-01-03T01:17:18.452Z,986.75
2018-01-03T01:18:18.447Z,986.73
2018-01-03T01:19:18.442Z,986.71
2018-01-03T01:20:18.437Z,986.64
2018-01-03T01:21:18.433Z,986.61
2018-01-03T01:22:18.426Z,986.59
2018-01-03T01:23:18.419Z,986.54
2018-01-03T01:24:18.414Z,986.51
2018-01-03T01:25:18.408Z,986.46
2018-01-03T01:26:18.403Z,986.43
2018-01-03T01:27:18.395Z,986.46
2018-01-03T01:28:18.390Z,986.36
2018-01-03T01:29:18.387Z,986.40
2018-01-03T01:30:18.416Z,986.34
2018-01-03T01:31:18.374Z,986.36
2018-01-03T01:32:18.387Z,986.29
2018-01-03T01:33:18.361Z,986.23
2018-01-03T01:34:18.357Z,986.17
2018-01-03T01:35:18.354Z,986.17
2018-01-03T01:36:18.345Z,986.15
2018-01-03T01:37:18.343Z,986.05
2018-01-03T01:38:18.335Z,986.00
2018-01-03T01:39:18.331Z,985.95
2018-01-03T01:40:18.324Z,985.91
2018-01-03T01:41:18.316Z,985.90
2018-01-03T01:42:18.312Z,985.83
2018-01-03T01:43:18.310Z,985.80
2018-01-03T01:44:18.302Z,985.79
2018-01-03T01:45:18.296Z,985.73
2018-01-03T01:46:18.289Z,985.71
2018-01-03T01:47:18.283Z,985.66
2018-01-03T01:48:18.277Z,985.62
2018-01-03T01:49:18.271Z,985.57
2018-01-03T01:50:18.267Z,985.52
2018-01-03T01:51:18.264Z,985.51
2018-01-03T01:52:18.260Z,985.46
2018-01-03T01:53:18.249Z,985.44
2018-01-03T01:54:18.245Z,985.47
2018-01-03T01:55:18.238Z,985.39
2018-01-03T01:56:18.234Z,985.39
2018-01-03T01:57:18.229Z,985.34
2018-01-03T01:58:18.222Z,985.35
2018-01-03T01:59:18.216Z,985.29
2018-01-03T02:00:18.210Z,985.25
2018-01-03T02:01:18.206Z,985.15
2018-01-03T02:02:18.198Z,985.12
2018-01-03T02:03:18.192Z,985.11
2018-01-03T02:04:18.188Z,985.05
2018-01-03T02:05:18.181Z,985.05
2018-01-03T02:06:18.176Z,984.99
2018-01-03T02:07:18.170Z,985.00
2018-01-03T02:08:18.166Z,984.93
2018-01-03T02:09:18.159Z,984.89
2018-01-03T02:10:18.159Z,984.87
2018-01-03T02:11:18.148Z,984.82
2018-01-03T02:12:18.141Z,984.71
2018-01-03T02:13:18.135Z,984.73
2018-01-03T02:14:18.129Z,984.64
2018-01-03T02:15:18.127Z,984.60
2018-01-03T02:16:18.119Z,984.58
2018-01-03T02:17:18.112Z,984.50
2018-01-03T02:18:18.108Z,984.44
2018-01-03T02:19:18.107Z,984.40
2018-01-03T02:20:18.097Z,984.30
2018-01-03T02:21:18.090Z,984.38
2018-01-03T02:22:18.085Z,984.35
2018-01-03T02:23:18.080Z,984.34
2018-01-03T02:24:18.074Z,984.33
2018-01-03T02:25:18.066Z,984.33
2018-01-03T02:26:18.065Z,984.27
2018-01-03T02:27:18.055Z,984.26
2018-01-03T02:28:18.050Z,984.25
2018-01-03T02:29:18.044Z,984.25
2018-01-03T02:30:18.042Z,984.16
2018-01-03T02:31:18.033Z,984.19
2018-01-03T02:32:18.028Z,984.17
2018-01-03T02:33:18.022Z,984.09
2018-01-03T02:34:18.018Z,984.11
2018-01-03T02:35:18.021Z,984.02
2018-01-03T02:36:18.006Z,984.00
2018-01-03T02:37:17.996Z,983.97
2018-01-03T02:38:17.992Z,983.92
2018-01-03T02:39:17.989Z,983.90
2018-01-03T02:40:17.982Z,983.79
2018-01-03T02:41:17.977Z,983.74
2018-01-03T02:42:17.974Z,983.68
2018-01-03T02:43:17.964Z,983.65
2018-01-03T02:44:17.956Z,983.62
2018-01-03T02:45:17.952Z,983.58
2018-01-03T02:46:17.948Z,983.55
2018-01-03T02:47:17.941Z,983.50
2018-01-03T02:48:17.936Z,983.45
2018-01-03T02:49:17.929Z,983.35
2018-01-03T02:50:17.925Z,983.35
2018-01-03T02:51:17.917Z,983.28
2018-01-03T02:52:17.913Z,983.28
2018-01-03T02:53:17.907Z,983.32
2018-01-03T02:54:17.900Z,983.26
2018-01-03T02:55:17.896Z,983.20
2018-01-03T02:56:17.891Z,983.23
2018-01-03T02:57:17.884Z,983.19
2018-01-03T02:58:17.881Z,983.20
2018-01-03T02:59:17.873Z,983.19
2018-01-03T03:00:17.868Z,983.12
2018-01-03T03:01:17.862Z,983.07
2018-01-03T03:02:17.858Z,983.06
2018-01-03T03:03:17.848Z,982.96
2018-01-03T03:04:17.843Z,982.96
2018-01-03T03:05:17.838Z,982.96
2018-01-03T03:06:17.837Z,983.05
2018-01-03T03:07:17.826Z,983.06
2018-01-03T03:08:17.824Z,982.96
2018-01-03T03:09:17.814Z,982.89
2018-01-03T03:10:17.810Z,982.76
2018-01-03T03:11:17.805Z,982.67
2018-01-03T03:12:17.800Z,982.54
2018-01-03T03:13:17.792Z,982.41
2018-01-03T03:14:17.789Z,982.28
2018-01-03T03:15:17.787Z,982.20
2018-01-03T03:16:17.776Z,982.12
2018-01-03T03:17:17.766Z,982.12
2018-01-03T03:18:17.763Z,982.01
2018-01-03T03:19:17.760Z,981.95
2018-01-03T03:20:17.752Z,981.84
2018-01-03T03:21:17.746Z,981.77
2018-01-03T03:22:17.741Z,981.77
2018-01-03T03:23:17.733Z,981.73
2018-01-03T03:24:17.732Z,981.72
2018-01-03T03:25:17.727Z,981.71
2018-01-03T03:26:17.720Z,981.71
2018-01-03T03:27:17.710Z,981.67
2018-01-03T03:28:17.703Z,981.66
2018-01-03T03:29:17.697Z,981.57
2018-01-03T03:30:17.694Z,981.47
2018-01-03T03:31:17.702Z,981.48
2018-01-03T03:32:17.685Z,981.43
2018-01-03T03:33:17.672Z,981.30
2018-01-03T03:34:17.666Z,981.20
2018-01-03T03:35:17.659Z,981.19
2018-01-03T03:36:17.654Z,981.19
2018-01-03T03:37:17.647Z,981.16
2018-01-03T03:38:17.642Z,981.13
2018-01-03T03:39:17.643Z,981.15
2018-01-03T03:40:17.632Z,981.23
2018-01-03T03:41:17.621Z,981.14
2018-01-03T03:42:17.618Z,981.17
2018-01-03T03:43:17.610Z,981.20
2018-01-03T03:44:17.605Z,981.10
2018-01-03T03:45:17.597Z,980.95
2018-01-03T03:46:17.598Z,980.92
2018-01-03T03:47:17.584Z,980.96
2018-01-03T03:48:17.579Z,980.85
2018-01-03T03:49:17.570Z,980.66
2018-01-03T03:50:17.565Z,980.47
2018-01-03T03:51:17.560Z,980.39
2018-01-03T03:52:17.554Z,980.31
2018-01-03T03:53:17.553Z,980.18
2018-01-03T03:54:17.541Z,980.16
2018-01-03T03:55:17.534Z,979.97
2018-01-03T03:56:17.526Z,979.83
2018-01-03T03:57:17.520Z,979.79
2018-01-03T03:58:17.515Z,979.79
2018-01-03T03:59:17.509Z,979.76
2018-01-03T04:00:17.501Z,979.70
2018-01-03T04:01:17.496Z,979.62
2018-01-03T04:02:17.489Z,979.41
2018-01-03T04:03:17.483Z,979.35
2018-01-03T04:04:17.477Z,979.24
2018-01-03T04:05:17.469Z,979.19
2018-01-03T04:06:17.464Z,979.18
2018-01-03T04:07:17.458Z,979.19
2018-01-03T04:08:17.455Z,979.03
2018-01-03T04:09:17.443Z,978.94
2018-01-03T04:10:17.440Z,978.84
2018-01-03T04:11:17.432Z,978.84
2018-01-03T04:12:17.429Z,978.72
2018-01-03T04:13:17.430Z,978.64
2018-01-03T04:14:17.412Z,978.58
2018-01-03T04:15:17.405Z,978.57
2018-01-03T04:16:17.400Z,978.46
2018-01-03T04:17:17.393Z,978.45
2018-01-03T04:18:38.395Z,978.57
2018-01-03T04:19:17.382Z,978.59
2018-01-03T04:20:17.376Z,978.45
2018-01-03T04:21:17.369Z,978.49
2018-01-03T04:22:17.366Z,978.42
2018-01-03T04:23:17.355Z,978.33
2018-01-03T04:24:17.350Z,978.25
2018-01-03T04:25:17.341Z,978.18
2018-01-03T04:26:17.336Z,978.20
2018-01-03T04:27:17.330Z,978.23
2018-01-03T04:28:17.325Z,978.04
2018-01-03T04:29:17.317Z,977.99
2018-01-03T04:30:17.314Z,978.02
2018-01-03T04:31:17.306Z,977.88
2018-01-03T04:32:17.304Z,978.03
2018-01-03T04:33:17.296Z,977.99
2018-01-03T04:34:17.291Z,978.01
2018-01-03T04:35:17.280Z,977.98
2018-01-03T04:36:17.274Z,977.95
2018-01-03T04:37:17.268Z,977.87
2018-01-03T04:38:17.261Z,977.91
2018-01-03T04:39:17.256Z,977.98
2018-01-03T04:40:17.249Z,977.90
2018-01-03T04:41:17.250Z,977.81
2018-01-03T04:42:17.239Z,977.74
2018-01-03T04:43:17.229Z,977.69
2018-01-03T04:44:17.223Z,977.63
2018-01-03T04:45:17.216Z,977.52
2018-01-03T04:46:17.214Z,977.58
2018-01-03T04:47:17.207Z,977.61
2018-01-03T04:48:17.199Z,977.66
2018-01-03T04:49:17.193Z,977.64
2018-01-03T04:50:17.187Z,977.67
2018-01-03T04:51:17.181Z,977.53
2018-01-03T04:52:17.178Z,977.45
2018-01-03T04:53:17.168Z,977.24
2018-01-03T04:54:17.162Z,977.22
2018-01-03T04:55:17.158Z,977.12
2018-01-03T04:56:17.151Z,977.07
2018-01-03T04:57:17.149Z,977.12
2018-01-03T04:58:17.142Z,977.09
2018-01-03T04:59:17.133Z,976.99
2018-01-03T05:00:17.126Z,976.95
2018-01-03T05:01:17.121Z,976.84
2018-01-03T05:02:17.134Z,976.75
2018-01-03T05:03:17.109Z,976.67
2018-01-03T05:04:17.103Z,976.61
2018-01-03T05:05:17.101Z,976.49
2018-01-03T05:06:17.090Z,976.42
2018-01-03T05:07:17.084Z,976.39
2018-01-03T05:08:17.079Z,976.25
2018-01-03T05:09:17.072Z,976.23
2018-01-03T05:10:17.069Z,976.14
2018-01-03T05:11:17.061Z,976.05
2018-01-03T05:12:17.053Z,975.87
2018-01-03T05:13:17.051Z,975.77
2018-01-03T05:14:17.041Z,975.72
2018-01-03T05:15:17.035Z,975.69
2018-01-03T05:16:17.030Z,975.59
2018-01-03T05:17:17.022Z,975.60
2018-01-03T05:18:17.016Z,975.56
2018-01-03T05:19:17.012Z,975.48
2018-01-03T05:20:17.002Z,975.46
2018-01-03T05:21:16.995Z,975.34
2018-01-03T05:22:16.991Z,975.23
2018-01-03T05:23:16.985Z,975.03
2018-01-03T05:24:16.977Z,975.01
2018-01-03T05:25:16.971Z,975.03
2018-01-03T05:26:16.965Z,974.92
2018-01-03T05:27:16.962Z,974.74
2018-01-03T05:28:17.465Z,974.66
2018-01-03T05:29:16.946Z,974.68
2018-01-03T05:30:16.940Z,974.68
2018-01-03T05:31:16.932Z,974.63
2018-01-03T05:32:16.926Z,974.62
2018-01-03T05:33:16.924Z,974.56
2018-01-03T05:34:16.915Z,974.51
2018-01-03T05:35:16.909Z,974.47
2018-01-03T05:36:16.914Z,974.39
2018-01-03T05:37:16.896Z,974.26
2018-01-03T05:38:16.958Z,974.18
2018-01-03T05:39:16.879Z,974.13
2018-01-03T05:40:16.876Z,974.17
2018-01-03T05:41:16.869Z,974.06
2018-01-03T05:42:16.861Z,973.95
2018-01-03T05:43:16.855Z,973.88
2018-01-03T05:44:16.848Z,973.91
2018-01-03T05:45:16.842Z,973.79
2018-01-03T05:46:16.836Z,973.76
2018-01-03T05:47:16.831Z,973.69
2018-01-03T05:48:16.825Z,973.72
2018-01-03T05:49:16.816Z,973.59
2018-01-03T05:50:16.810Z,973.53
2018-01-03T05:51:16.889Z,973.51
2018-01-03T05:52:16.797Z,973.47
2018-01-03T05:53:16.790Z,973.34
2018-01-03T05:54:16.784Z,973.19
2018-01-03T05:55:16.775Z,973.20
2018-01-03T05:56:16.772Z,973.04
2018-01-03T05:57:16.764Z,973.06
2018-01-03T05:58:16.761Z,973.18
2018-01-03T05:59:16.754Z,973.27
2018-01-03T06:00:16.745Z,973.41
2018-01-03T06:01:16.738Z,973.41
2018-01-03T06:02:16.730Z,973.40
2018-01-03T06:03:16.725Z,973.36
2018-01-03T06:04:16.756Z,973.31
2018-01-03T06:05:16.712Z,973.29
2018-01-03T06:06:16.706Z,973.23
2018-01-03T06:07:16.710Z,973.22
2018-01-03T06:08:16.692Z,973.09
2018-01-03T06:09:16.687Z,973.08
2018-01-03T06:10:16.682Z,973.02
2018-01-03T06:11:16.674Z,973.01
2018-01-03T06:12:16.690Z,972.91
2018-01-03T06:13:16.661Z,972.86
2018-01-03T06:14:16.655Z,972.83
2018-01-03T06:15:16.651Z,972.82
2018-01-03T06:16:16.645Z,972.75
2018-01-03T06:17:16.641Z,972.70
2018-01-03T06:18:16.633Z,972.61
2018-01-03T06:19:16.627Z,972.48
2018-01-03T06:20:16.628Z,972.54
2018-01-03T06:21:16.614Z,972.48
2018-01-03T06:22:16.611Z,972.45
2018-01-03T06:23:16.605Z,972.44
2018-01-03T06:24:16.595Z,972.45
2018-01-03T06:25:16.587Z,972.36
2018-01-03T06:26:16.595Z,972.32
2018-01-03T06:27:16.577Z,972.32
2018-01-03T06:28:16.572Z,972.29
2018-01-03T06:29:16.565Z,972.13
2018-01-03T06:30:16.560Z,972.09
2018-01-03T06:31:16.551Z,972.00
2018-01-03T06:32:16.546Z,972.06
2018-01-03T06:33:16.540Z,971.94
2018-01-03T06:34:16.560Z,971.77
2018-01-03T06:35:16.530Z,971.71
2018-01-03T06:36:16.520Z,971.66
2018-01-03T06:37:16.517Z,971.55
2018-01-03T06:38:16.510Z,971.52
2018-01-03T06:39:16.506Z,971.51
2018-01-03T06:40:16.499Z,971.36
2018-01-03T06:41:16.492Z,971.36
2018-01-03T06:42:16.489Z,971.38
2018-01-03T06:43:16.566Z,971.42
2018-01-03T06:44:16.477Z,971.37
2018-01-03T06:45:16.470Z,971.35
2018-01-03T06:46:16.465Z,971.30
2018-01-03T06:47:16.458Z,971.26
2018-01-03T06:48:16.970Z,971.17
2018-01-03T06:49:16.445Z,971.18
2018-01-03T06:50:16.441Z,971.12
2018-01-03T06:51:16.438Z,971.10
2018-01-03T06:52:16.432Z,971.12
2018-01-03T06:53:16.426Z,971.12
2018-01-03T06:54:16.421Z,971.05
2018-01-03T06:55:16.423Z,971.01
2018-01-03T06:56:16.408Z,970.97
2018-01-03T06:57:16.398Z,971.04
2018-01-03T06:58:16.394Z,970.97
2018-01-03T06:59:16.441Z,971.02
2018-01-03T07:00:16.382Z,970.96
2018-01-03T07:01:16.376Z,970.99
2018-01-03T07:02:16.370Z,971.01
2018-01-03T07:03:16.364Z,971.01
2018-01-03T07:04:16.358Z,971.05
2018-01-03T07:05:16.352Z,971.08
2018-01-03T07:06:16.348Z,970.95
2018-01-03T07:07:16.371Z,970.88
2018-01-03T07:08:16.342Z,970.91
2018-01-03T07:09:16.329Z,971.09
2018-01-03T07:10:16.324Z,970.99
2018-01-03T07:11:16.317Z,970.94
2018-01-03T07:12:16.314Z,970.67
2018-01-03T07:13:16.309Z,970.69
2018-01-03T07:14:16.300Z,970.75
2018-01-03T07:15:16.296Z,970.91
2018-01-03T07:16:16.290Z,970.96
2018-01-03T07:17:16.286Z,970.95
2018-01-03T07:18:16.280Z,970.91
2018-01-03T07:19:16.275Z,970.86
2018-01-03T07:20:16.269Z,970.77
2018-01-03T07:21:16.261Z,970.74
2018-01-03T07:22:16.258Z,970.72
2018-01-03T07:23:16.251Z,970.65
2018-01-03T07:24:16.246Z,970.61
2018-01-03T07:25:16.242Z,970.56
2018-01-03T07:26:16.234Z,970.55
2018-01-03T07:27:16.292Z,970.51
2018-01-03T07:28:16.222Z,970.60
2018-01-03T07:29:16.220Z,970.53
2018-01-03T07:30:16.211Z,970.60
2018-01-03T07:31:16.210Z,970.68
2018-01-03T07:32:16.203Z,970.68
2018-01-03T07:33:16.196Z,970.72
2018-01-03T07:34:16.193Z,970.75
2018-01-03T07:35:16.185Z,970.81
2018-01-03T07:36:16.183Z,970.86
2018-01-03T07:37:16.174Z,970.81
2018-01-03T07:38:16.741Z,970.70
2018-01-03T07:39:16.439Z,970.83
2018-01-03T07:40:16.159Z,970.89
2018-01-03T07:41:16.157Z,970.80
2018-01-03T07:42:16.742Z,970.76
2018-01-03T07:43:16.140Z,970.84
2018-01-03T07:44:16.141Z,970.96
2018-01-03T07:45:16.128Z,971.01
2018-01-03T07:46:16.126Z,970.99
2018-01-03T07:47:16.120Z,971.01
2018-01-03T07:48:16.115Z,970.95
2018-01-03T07:49:16.307Z,970.77
2018-01-03T07:50:16.103Z,970.69
2018-01-03T07:51:16.212Z,970.66
2018-01-03T07:52:16.098Z,970.68
2018-01-03T07:53:16.794Z,970.68
2018-01-03T07:54:16.085Z,970.61
2018-01-03T07:55:16.076Z,970.58
2018-01-03T07:56:16.076Z,970.53
2018-01-03T07:57:16.158Z,970.49
2018-01-03T07:58:16.059Z,970.40
2018-01-03T07:59:16.057Z,970.31
2018-01-03T08:00:16.740Z,970.28
2018-01-03T08:01:16.063Z,970.18
2018-01-03T08:02:16.042Z,970.16
2018-01-03T08:03:16.037Z,970.21
2018-01-03T08:04:16.032Z,970.21
2018-01-03T08:05:16.027Z,970.34
2018-01-03T08:06:16.054Z,970.45
2018-01-03T08:07:16.016Z,970.47
2018-01-03T08:08:16.096Z,970.40
2018-01-03T08:09:16.012Z,970.29
2018-01-03T08:10:16.003Z,970.07
2018-01-03T08:11:15.998Z,970.02
2018-01-03T08:12:16.005Z,969.98
2018-01-03T08:13:15.996Z,969.92
2018-01-03T08:14:16.862Z,969.94
2018-01-03T08:15:15.979Z,969.87
2018-01-03T08:16:15.996Z,969.89
2018-01-03T08:17:15.993Z,969.92
2018-01-03T08:18:15.966Z,969.99
2018-01-03T08:19:16.761Z,969.90
2018-01-03T08:20:15.956Z,970.06
2018-01-03T08:21:15.954Z,970.26
2018-01-03T08:22:15.946Z,970.31
2018-01-03T08:23:15.945Z,970.37
2018-01-03T08:24:15.938Z,970.45
2018-01-03T08:25:15.942Z,970.51
2018-01-03T08:26:15.928Z,970.44
2018-01-03T08:27:15.929Z,970.42
2018-01-03T08:28:15.923Z,970.36
2018-01-03T08:29:16.750Z,970.02
2018-01-03T08:30:15.911Z,969.78
2018-01-03T08:31:15.913Z,969.85
2018-01-03T08:32:15.901Z,969.97
2018-01-03T08:33:15.991Z,969.99
2018-01-03T08:34:15.892Z,969.88
2018-01-03T08:35:15.890Z,969.94
2018-01-03T08:36:15.889Z,969.99
2018-01-03T08:37:15.884Z,970.17
2018-01-03T08:38:15.886Z,970.45
2018-01-03T08:39:15.871Z,970.51
2018-01-03T08:40:15.878Z,970.39
2018-01-03T08:41:16.762Z,970.27
2018-01-03T08:42:15.867Z,970.30
2018-01-03T08:43:15.859Z,970.30
2018-01-03T08:44:15.853Z,970.38
2018-01-03T08:45:15.849Z,970.51
2018-01-03T08:46:15.843Z,970.64
2018-01-03T08:47:15.839Z,970.62
2018-01-03T08:48:15.839Z,970.65
2018-01-03T08:49:15.835Z,970.81
2018-01-03T08:50:15.830Z,970.90
2018-01-03T08:51:15.825Z,970.95
2018-01-03T08:52:15.824Z,970.96
2018-01-03T08:53:15.817Z,970.94
2018-01-03T08:54:15.815Z,970.83
2018-01-03T08:55:15.810Z,970.76
2018-01-03T08:56:16.036Z,970.70
2018-01-03T08:57:15.802Z,970.70
2018-01-03T08:58:15.798Z,970.69
2018-01-03T08:59:15.792Z,970.62
2018-01-03T09:00:15.794Z,970.52
2018-01-03T09:01:15.787Z,970.50
2018-01-03T09:02:15.800Z,970.51
2018-01-03T09:03:15.781Z,970.41
2018-01-03T09:04:15.985Z,970.31
2018-01-03T09:05:16.794Z,970.18
2018-01-03T09:06:16.296Z,970.16
2018-01-03T09:07:15.894Z,970.34
2018-01-03T09:08:16.751Z,970.28
2018-01-03T09:09:16.767Z,970.24
2018-01-03T09:10:15.996Z,970.23
2018-01-03T09:11:16.751Z,970.37
2018-01-03T09:12:16.052Z,970.49
2018-01-03T09:13:16.770Z,970.55
2018-01-03T09:14:15.865Z,970.57
2018-01-03T09:15:16.757Z,970.59
2018-01-03T09:16:16.725Z,970.59
2018-01-03T09:17:16.022Z,970.62
2018-01-03T09:18:15.917Z,970.66
2018-01-03T09:19:15.940Z,970.81
2018-01-03T09:20:15.716Z,970.81
2018-01-03T09:21:15.717Z,970.91
2018-01-03T09:22:15.711Z,971.00
2018-01-03T09:23:15.706Z,971.06
2018-01-03T09:24:15.701Z,971.16
2018-01-03T09:25:15.697Z,971.26
2018-01-03T09:26:15.698Z,971.26
2018-01-03T09:27:15.689Z,971.28
2018-01-03T09:28:15.686Z,971.30
2018-01-03T09:29:15.682Z,971.28
2018-01-03T09:30:15.680Z,971.27
2018-01-03T09:31:15.675Z,971.23
2018-01-03T09:32:15.682Z,971.13
2018-01-03T09:33:15.668Z,971.07
2018-01-03T09:34:15.665Z,971.02
2018-01-03T09:35:15.672Z,970.99
2018-01-03T09:36:15.658Z,971.01
2018-01-03T09:37:15.654Z,970.98
2018-01-03T09:38:15.660Z,971.03
2018-01-03T09:39:15.648Z,971.10
2018-01-03T09:40:15.644Z,971.12
2018-01-03T09:41:15.639Z,971.04
2018-01-03T09:42:15.637Z,971.11
2018-01-03T09:43:15.631Z,971.04
2018-01-03T09:44:15.630Z,971.00
2018-01-03T09:45:15.628Z,971.03
2018-01-03T09:46:15.621Z,970.98
2018-01-03T09:47:15.617Z,970.98
2018-01-03T09:48:15.616Z,970.96
2018-01-03T09:49:15.613Z,970.94
2018-01-03T09:50:15.607Z,971.01
2018-01-03T09:51:15.605Z,971.00
2018-01-03T09:52:15.598Z,970.99
2018-01-03T09:53:15.598Z,971.03
2018-01-03T09:54:15.592Z,970.99
2018-01-03T09:55:15.590Z,970.90
2018-01-03T09:56:15.587Z,970.89
2018-01-03T09:57:15.582Z,970.84
2018-01-03T09:58:15.581Z,970.80
2018-01-03T09:59:15.579Z,970.81
2018-01-03T10:00:15.571Z,970.75
2018-01-03T10:01:15.569Z,970.66
2018-01-03T10:02:15.578Z,970.63
2018-01-03T10:03:15.566Z,970.65
2018-01-03T10:04:15.559Z,970.68
2018-01-03T10:05:15.555Z,970.71
2018-01-03T10:06:15.552Z,970.67
2018-01-03T10:07:15.550Z,970.59
2018-01-03T10:08:15.545Z,970.52
2018-01-03T10:09:15.541Z,970.33
2018-01-03T10:10:15.567Z,970.41
2018-01-03T10:11:15.535Z,970.34
2018-01-03T10:12:15.532Z,970.29
2018-01-03T10:13:15.537Z,970.34
2018-01-03T10:14:15.527Z,970.28
2018-01-03T10:15:15.523Z,970.31
2018-01-03T10:16:15.521Z,970.40
2018-01-03T10:17:15.520Z,970.28
2018-01-03T10:18:15.510Z,970.41
2018-01-03T10:19:15.508Z,970.29
2018-01-03T10:20:15.506Z,970.34
2018-01-03T10:21:15.501Z,970.43
2018-01-03T10:22:15.501Z,970.48
2018-01-03T10:23:15.494Z,970.39
2018-01-03T10:24:15.492Z,970.51
2018-01-03T10:25:15.486Z,970.64
2018-01-03T10:26:15.485Z,970.61
2018-01-03T10:27:15.480Z,970.63
2018-01-03T10:28:15.480Z,970.64
2018-01-03T10:29:15.473Z,970.69
2018-01-03T10:30:15.473Z,970.76
2018-01-03T10:31:15.468Z,970.78
2018-01-03T10:32:15.463Z,970.78
2018-01-03T10:33:15.532Z,970.78
2018-01-03T10:34:15.502Z,970.82
2018-01-03T10:35:15.461Z,970.79
2018-01-03T10:36:15.451Z,970.79
2018-01-03T10:37:15.450Z,970.75
2018-01-03T10:38:15.447Z,970.76
2018-01-03T10:39:15.534Z,970.75
2018-01-03T10:40:15.442Z,970.76
2018-01-03T10:41:15.436Z,970.72
2018-01-03T10:42:15.435Z,970.73
2018-01-03T10:43:15.430Z,970.73
2018-01-03T10:44:15.466Z,970.72
2018-01-03T10:45:15.425Z,970.66
2018-01-03T10:46:15.422Z,970.66
2018-01-03T10:47:15.422Z,970.74
2018-01-03T10:48:15.420Z,970.79
2018-01-03T10:49:15.414Z,970.85
2018-01-03T10:50:15.434Z,970.98
2018-01-03T10:51:15.423Z,970.95
2018-01-03T10:52:15.449Z,971.00
2018-01-03T10:53:15.405Z,971.60
2018-01-03T10:54:15.403Z,972.95
2018-01-03T10:55:15.410Z,973.25
2018-01-03T10:56:15.394Z,973.24
2018-01-03T10:57:15.394Z,972.78
2018-01-03T10:58:15.403Z,972.62
2018-01-03T10:59:15.384Z,972.56
2018-01-03T11:00:15.381Z,972.37
2018-01-03T11:01:15.377Z,972.63
2018-01-03T11:02:15.375Z,972.58
2018-01-03T11:03:15.372Z,972.57
2018-01-03T11:04:15.364Z,972.71
2018-01-03T11:05:15.360Z,972.71
2018-01-03T11:06:15.364Z,972.63
2018-01-03T11:07:15.352Z,972.64
2018-01-03T11:08:15.354Z,972.56
2018-01-03T11:09:15.357Z,972.53
2018-01-03T11:10:15.355Z,972.54
2018-01-03T11:11:15.336Z,972.51
2018-01-03T11:12:15.329Z,972.42
2018-01-03T11:13:15.323Z,972.46
2018-01-03T11:14:15.319Z,972.39
2018-01-03T11:15:15.312Z,972.52
2018-01-03T11:16:15.347Z,972.32
2018-01-03T11:17:15.305Z,972.45
2018-01-03T11:18:15.300Z,972.45
2018-01-03T11:19:15.293Z,972.54
2018-01-03T11:20:15.291Z,972.62
2018-01-03T11:21:15.283Z,972.58
2018-01-03T11:22:15.278Z,972.69
2018-01-03T11:23:15.273Z,972.74
2018-01-03T11:24:15.269Z,972.67
2018-01-03T11:25:15.261Z,972.81
2018-01-03T11:26:15.257Z,972.74
2018-01-03T11:27:15.336Z,972.85
2018-01-03T11:28:15.287Z,972.85
2018-01-03T11:29:15.244Z,972.70
2018-01-03T11:30:15.237Z,972.87
2018-01-03T11:31:15.231Z,972.66
2018-01-03T11:32:15.232Z,972.77
2018-01-03T11:33:15.219Z,972.80
2018-01-03T11:34:15.217Z,972.81
2018-01-03T11:35:15.210Z,972.75
2018-01-03T11:36:15.205Z,972.74
2018-01-03T11:37:15.200Z,972.76
2018-01-03T11:38:15.217Z,972.89
2018-01-03T11:39:15.185Z,973.01
2018-01-03T11:40:15.183Z,973.08
2018-01-03T11:41:15.174Z,973.12
2018-01-03T11:42:15.171Z,973.15
2018-01-03T11:43:15.169Z,973.11
2018-01-03T11:44:15.161Z,973.14
2018-01-03T11:45:15.159Z,973.20
2018-01-03T11:46:15.150Z,973.09
2018-01-03T11:47:15.147Z,973.22
2018-01-03T11:48:15.141Z,973.18
2018-01-03T11:49:15.134Z,973.18
2018-01-03T11:50:15.128Z,973.11
2018-01-03T11:51:15.120Z,973.23
2018-01-03T11:52:15.120Z,973.09
2018-01-03T11:53:15.112Z,973.21
2018-01-03T11:54:15.114Z,973.19
2018-01-03T11:55:15.106Z,973.24
2018-01-03T11:56:15.126Z,973.18
2018-01-03T11:57:15.090Z,973.22
2018-01-03T11:58:15.086Z,973.21
2018-01-03T11:59:15.080Z,973.24
2018-01-03T12:00:15.074Z,973.22
2018-01-03T12:01:15.070Z,973.30
2018-01-03T12:02:15.116Z,973.33
2018-01-03T12:03:15.059Z,973.36
2018-01-03T12:04:15.055Z,973.38
2018-01-03T12:05:15.050Z,973.50
2018-01-03T12:06:15.048Z,973.46
2018-01-03T12:07:15.038Z,973.51
2018-01-03T12:08:15.035Z,973.58
2018-01-03T12:09:15.029Z,973.62
2018-01-03T12:10:15.024Z,973.54
2018-01-03T12:11:15.036Z,973.61
2018-01-03T12:12:15.014Z,973.58
2018-01-03T12:13:15.019Z,973.50
2018-01-03T12:14:15.239Z,973.55
2018-01-03T12:15:15.192Z,973.51
2018-01-03T12:16:15.138Z,973.57
2018-01-03T12:17:15.013Z,973.47
2018-01-03T12:18:14.988Z,973.57
2018-01-03T12:19:14.978Z,973.51
2018-01-03T12:20:14.995Z,973.54
2018-01-03T12:21:14.972Z,973.56
2018-01-03T12:22:14.964Z,973.66
2018-01-03T12:23:14.958Z,973.55
2018-01-03T12:24:14.955Z,973.59
2018-01-03T12:25:14.948Z,973.59
2018-01-03T12:26:14.945Z,973.68
2018-01-03T12:27:14.941Z,973.73
2018-01-03T12:28:14.935Z,973.71